createdAt,value
2022-10-13T18:12:34.950Z,13.32
2022-10-13T18:15:37.148Z,13.35
2022-10-13T18:18:39.011Z,13.36
2022-10-13T18:21:40.741Z,13.34
2022-10-13T18:24:42.433Z,13.36
2022-10-13T18:27:45.558Z,13.33
2022-10-13T18:30:47.296Z,13.41
2022-10-13T18:33:49.169Z,13.34
2022-10-13T18:36:54.802Z,13.33
2022-10-13T18:39:56.446Z,13.31
2022-10-13T18:42:59.707Z,13.38
2022-10-13T18:46:02.455Z,13.43
2022-10-13T18:49:05.500Z,13.49
2022-10-13T18:52:07.240Z,13.57
2022-10-13T18:55:12.866Z,13.60
2022-10-13T18:58:16.017Z,13.59
2022-10-13T19:01:19.377Z,13.59
2022-10-13T19:04:22.236Z,13.61
2022-10-13T19:07:25.405Z,13.64
2022-10-13T19:10:29.446Z,13.63
2022-10-13T19:13:33.058Z,13.56
2022-10-13T19:16:37.412Z,13.53
2022-10-13T19:19:40.646Z,13.60
2022-10-13T19:22:42.501Z,13.63
2022-10-13T19:25:44.738Z,13.61
2022-10-13T19:28:52.786Z,13.53
2022-10-13T19:31:54.540Z,13.62
2022-10-13T19:34:56.297Z,13.62
2022-10-13T19:37:58.110Z,13.65
2022-10-13T19:41:02.941Z,13.67
2022-10-13T19:44:06.537Z,13.70
2022-10-13T19:47:13.013Z,13.60
2022-10-13T19:50:14.655Z,13.48
2022-10-13T19:53:16.529Z,13.32
2022-10-13T19:56:24.041Z,13.30
2022-10-13T19:59:27.923Z,13.29
2022-10-13T20:02:29.621Z,13.32
2022-10-13T20:05:32.239Z,13.27
2022-10-13T20:08:33.970Z,13.33
2022-10-13T20:11:35.674Z,13.31
2022-10-13T20:14:41.718Z,13.36
2022-10-13T20:17:43.879Z,13.38
2022-10-13T20:20:45.525Z,13.40
2022-10-13T20:23:47.254Z,13.40
2022-10-13T20:26:50.134Z,13.39
2022-10-13T20:29:58.105Z,13.36
2022-10-13T20:33:00.947Z,13.39
2022-10-13T20:36:05.066Z,13.30
2022-10-13T20:39:09.034Z,13.32
2022-10-13T20:42:10.772Z,13.33
2022-10-13T20:45:13.872Z,13.31
2022-10-13T20:48:15.502Z,13.27
2022-10-13T20:51:19.437Z,13.27
2022-10-13T20:54:21.208Z,13.31
2022-10-13T20:57:23.317Z,13.28
2022-10-13T21:00:26.723Z,13.27
2022-10-13T21:03:28.830Z,13.21
2022-10-13T21:06:34.329Z,13.15
2022-10-13T21:09:36.239Z,13.04
2022-10-13T21:12:38.445Z,12.95
2022-10-13T21:15:44.646Z,12.97
2022-10-13T21:18:49.002Z,13.05
2022-10-13T21:21:50.724Z,13.13
2022-10-13T21:24:52.416Z,13.14
2022-10-13T21:27:54.324Z,13.19
2022-10-13T21:31:02.130Z,13.16
2022-10-13T21:34:03.970Z,13.13
2022-10-13T21:37:05.626Z,13.25
2022-10-13T21:40:09.269Z,13.26
2022-10-13T21:43:10.906Z,13.47
2022-10-13T21:46:15.824Z,13.51
2022-10-13T21:49:17.413Z,13.56
2022-10-13T21:52:19.088Z,13.59
2022-10-13T21:55:20.837Z,13.51
2022-10-13T21:58:22.750Z,13.52
2022-10-13T22:01:26.378Z,13.53
2022-10-13T22:04:28.250Z,13.49
2022-10-13T22:07:30.003Z,13.54
2022-10-13T22:10:31.764Z,13.56
2022-10-13T22:13:33.820Z,13.53
2022-10-13T22:16:39.683Z,13.51
2022-10-13T22:19:41.491Z,13.56
2022-10-13T22:22:43.418Z,13.59
2022-10-13T22:25:45.538Z,13.59
2022-10-13T22:28:51.184Z,13.63
2022-10-13T22:31:57.598Z,13.62
2022-10-13T22:34:59.246Z,13.64
2022-10-13T22:38:00.879Z,13.62
2022-10-13T22:41:02.994Z,13.63
2022-10-13T22:44:04.937Z,13.58
2022-10-13T22:47:07.982Z,13.61
2022-10-13T22:50:09.996Z,13.57
2022-10-13T22:53:12.046Z,13.56
2022-10-13T22:56:15.556Z,13.57
2022-10-13T22:59:17.268Z,13.59
2022-10-13T23:02:20.316Z,13.57
2022-10-13T23:05:22.035Z,13.56
2022-10-13T23:08:23.740Z,13.54
2022-10-13T23:11:25.374Z,13.49
2022-10-13T23:14:27.004Z,13.53
2022-10-13T23:17:30.078Z,13.53
2022-10-13T23:20:31.917Z,13.54
2022-10-13T23:23:34.518Z,13.54
2022-10-13T23:26:36.280Z,13.52
2022-10-13T23:29:37.902Z,13.51
2022-10-13T23:32:40.891Z,13.49
2022-10-13T23:35:42.532Z,13.47
2022-10-13T23:38:44.280Z,13.48
2022-10-13T23:41:45.909Z,13.45
2022-10-13T23:44:47.941Z,13.40
2022-10-13T23:47:51.045Z,13.42
2022-10-13T23:50:52.685Z,13.44
2022-10-13T23:53:54.654Z,13.46
2022-10-13T23:56:56.298Z,13.45
2022-10-13T23:59:58.291Z,13.45
